Terminal Aerodrome Forecast
Issued by NWS Indianapolis, IN

Home | Current Version | Previous Version | Text Only | Print | Product List | Glossary On
Versions: 1 2 3 4 5 6 7 8 9 10 11 12 13 14 15 16 17 18 19 20 21 22 23 24 25 26
587
FTUS43 KIND 180215 AAB
TAFIND
TAF AMD
KIND 180215Z 1802/1906 19006KT P6SM BKN025
     FM180400 20004KT P6SM BKN015
     FM180600 21004KT 6SM BR BKN007
     FM180800 21005KT 3SM BR OVC003
     FM181600 23007KT P6SM OVC008
     FM182100 23007KT P6SM BKN015
     FM190200 22006KT P6SM SCT040=

USA.gov is the U.S. government's official web portal to all federal, state and local government web resources and services.